This is the latest recevied weather packets stored in our database for station/object LRBO. If no packets are shown the sender has not sent any weather packets the latest 1 day(s).
| Time | Temp. | Humidity | Pressure | Rain* | Wind** | Luminosity | Snow |
|---|---|---|---|---|---|---|---|
| 1778099634 | 11.11° C | 77% | 1016 hPa | - | - | - | - |
| 1778096950 | 15° C | 63% | 1016 hPa | - | - | - | - |
| 1778094234 | 15° C | 63% | 1016 hPa | - | - | - | - |
| 1778093336 | 17.22° C | 56% | 1015 hPa | - | - | - | - |
| 1778092434 | 17.22° C | 56% | 1015 hPa | - | - | - | - |
| 1778091534 | 17.22° C | 56% | 1015 hPa | - | - | - | - |
| 1778089734 | 20° C | 46% | 1014 hPa | - | - | - | - |
| 1778088834 | 20° C | 46% | 1014 hPa | - | - | - | - |
| 1778086134 | 22.22° C | 41% | 1014 hPa | - | - | - | - |
| 1778084334 | 22.22° C | 41% | 1014 hPa | - | - | - | - |
| 1778082534 | 22.22° C | 38% | 1015 hPa | - | - | - | - |
| 1778079840 | 22.22° C | 38% | 1015 hPa | - | - | - | - |
| 1778078934 | 22.78° C | 38% | 1015 hPa | - | - | - | - |
| 1778078045 | 22.78° C | 38% | 1015 hPa | - | - | - | - |
| 1778074434 | 22.78° C | 38% | 1015 hPa | - | - | - | - |
| 1778069934 | 22.78° C | 38% | 1015 hPa | - | - | - | - |
| 1778064534 | 22.22° C | 38% | 1016 hPa | - | - | - | - |
| 1778063634 | 22.22° C | 38% | 1016 hPa | - | - | - | - |
| 1778062734 | 22.22° C | 38% | 1016 hPa | - | - | - | - |
| 1778061834 | 22.22° C | 38% | 1016 hPa | - | - | - | - |
| 1778060934 | 21.11° C | 43% | 1016 hPa | - | - | - | - |
| 1778059134 | 21.11° C | 43% | 1016 hPa | - | - | - | - |
| 1778057334 | 20° C | 40% | 1016 hPa | - | - | - | - |
| 1778055530 | 20° C | 40% | 1016 hPa | - | - | - | - |
| 1778054634 | 20° C | 40% | 1016 hPa | - | - | - | - |
* Rain since midnight (hover to see other rain measurements)
** Current wind speed in m/s (hover to see current wind gust speed)